createdAt,value
2023-04-17T00:00:23.216Z,14.13
2023-04-17T00:02:56.722Z,13.75
2023-04-17T00:05:32.005Z,13.83
2023-04-17T00:08:04.900Z,13.70
2023-04-17T00:10:38.247Z,15.23
2023-04-17T00:13:11.566Z,14.70
2023-04-17T00:15:44.321Z,12.73
2023-04-17T00:18:18.385Z,12.98
2023-04-17T00:20:50.990Z,13.47
2023-04-17T00:23:23.677Z,16.27
2023-04-17T00:25:56.209Z,18.40
2023-04-17T00:28:29.031Z,12.98
2023-04-17T00:31:01.743Z,14.85
2023-04-17T00:33:35.202Z,13.85
2023-04-17T00:36:08.583Z,14.28
2023-04-17T00:41:14.165Z,12.60
2023-04-17T00:43:46.808Z,13.45
2023-04-17T00:46:19.319Z,13.55
2023-04-17T00:48:51.985Z,13.10
2023-04-17T00:51:24.348Z,13.40
2023-04-17T00:53:56.956Z,13.15
2023-04-17T00:56:30.242Z,13.13
2023-04-17T00:59:03.329Z,13.28
2023-04-17T01:01:36.136Z,14.85
2023-04-17T01:04:10.302Z,13.58
2023-04-17T01:06:43.182Z,13.25
2023-04-17T01:09:15.659Z,13.62
2023-04-17T01:11:48.205Z,12.65
2023-04-17T01:14:20.910Z,13.22
2023-04-17T01:16:53.515Z,13.38
2023-04-17T01:19:25.931Z,13.03
2023-04-17T01:21:58.387Z,12.78
2023-04-17T01:24:32.313Z,13.68
2023-04-17T01:27:07.180Z,14.00
2023-04-17T01:29:40.967Z,12.58
2023-04-17T01:32:13.940Z,12.82
2023-04-17T01:34:47.156Z,12.03
2023-04-17T01:37:20.105Z,12.98
2023-04-17T01:39:53.525Z,13.08
2023-04-17T01:42:25.885Z,13.72
2023-04-17T01:44:58.298Z,12.65
2023-04-17T01:47:30.878Z,13.08
2023-04-17T01:50:04.225Z,12.70
2023-04-17T01:52:37.475Z,13.10
2023-04-17T01:55:11.039Z,12.40
2023-04-17T01:57:44.109Z,13.30
2023-04-17T02:00:17.222Z,11.68
2023-04-17T02:02:50.419Z,13.07
2023-04-17T02:05:23.319Z,13.05
2023-04-17T02:07:56.179Z,12.90
2023-04-17T02:10:31.262Z,12.47
2023-04-17T02:13:04.014Z,12.10
2023-04-17T02:15:38.876Z,12.85
2023-04-17T02:20:43.403Z,14.20
2023-04-17T02:23:15.968Z,12.35
2023-04-17T02:25:48.602Z,12.05
2023-04-17T02:28:21.537Z,12.05
2023-04-17T02:30:54.075Z,11.63
2023-04-17T02:33:26.538Z,13.00
2023-04-17T02:35:59.036Z,12.78
2023-04-17T02:38:33.905Z,13.00
2023-04-17T02:41:06.529Z,11.75
2023-04-17T02:43:39.407Z,12.28
2023-04-17T02:46:12.082Z,13.40
2023-04-17T02:48:44.508Z,13.72
2023-04-17T02:51:17.029Z,13.10
2023-04-17T02:53:49.904Z,12.43
2023-04-17T02:56:22.746Z,12.43
2023-04-17T02:58:55.508Z,13.05
2023-04-17T03:01:28.216Z,13.20
2023-04-17T03:04:01.445Z,13.03
2023-04-17T03:06:34.550Z,12.53
2023-04-17T03:09:07.418Z,12.65
2023-04-17T03:11:40.467Z,12.47
2023-04-17T03:14:12.882Z,12.33
2023-04-17T03:16:45.688Z,12.85
2023-04-17T03:19:18.172Z,13.40
2023-04-17T03:21:50.814Z,13.03
2023-04-17T03:24:23.427Z,12.95
2023-04-17T03:26:56.655Z,13.20
2023-04-17T03:29:31.220Z,13.45
2023-04-17T03:32:03.874Z,14.05
2023-04-17T03:34:37.266Z,12.10
2023-04-17T03:37:09.785Z,12.47
2023-04-17T03:39:42.717Z,12.88
2023-04-17T03:42:15.433Z,12.85
2023-04-17T03:44:48.875Z,12.40
2023-04-17T03:47:21.563Z,12.80
2023-04-17T03:49:54.108Z,11.88
2023-04-17T03:52:27.539Z,11.65
2023-04-17T03:55:01.768Z,12.60
2023-04-17T03:57:34.602Z,11.93
2023-04-17T04:00:10.618Z,12.90
2023-04-17T04:02:54.250Z,13.15
2023-04-17T04:05:28.938Z,12.18
2023-04-17T04:08:01.889Z,12.82
2023-04-17T04:10:36.129Z,13.58
2023-04-17T04:13:09.016Z,10.80
2023-04-17T04:15:42.258Z,10.23
2023-04-17T04:18:15.190Z,9.73
2023-04-17T04:20:48.450Z,10.30
2023-04-17T04:23:24.249Z,10.18
2023-04-17T04:25:58.260Z,8.85
2023-04-17T04:28:39.045Z,9.90
2023-04-17T04:31:15.317Z,9.88
2023-04-17T04:33:48.199Z,9.08
2023-04-17T04:36:21.792Z,9.25
2023-04-17T04:38:57.783Z,8.38
2023-04-17T04:41:34.163Z,8.68
2023-04-17T04:44:08.891Z,9.08
2023-04-17T04:46:42.079Z,8.63
2023-04-17T04:49:15.336Z,8.80
2023-04-17T04:51:47.966Z,9.45
2023-04-17T04:54:21.020Z,8.73
2023-04-17T04:56:58.181Z,7.95
2023-04-17T04:59:30.783Z,8.30
2023-04-17T05:02:05.091Z,8.58
2023-04-17T05:04:38.599Z,8.40
2023-04-17T05:07:11.409Z,8.90
2023-04-17T05:09:44.575Z,9.05
2023-04-17T05:12:18.027Z,7.33
2023-04-17T05:14:50.624Z,7.47
2023-04-17T05:17:23.883Z,7.70
2023-04-17T05:19:57.462Z,7.60
2023-04-17T05:22:30.089Z,6.45
2023-04-17T05:25:04.917Z,7.67
2023-04-17T05:27:37.869Z,9.98
2023-04-17T05:30:11.433Z,7.22
2023-04-17T05:32:46.438Z,7.37
2023-04-17T05:35:20.631Z,6.83
2023-04-17T05:37:54.320Z,6.62
2023-04-17T05:40:26.825Z,6.35
2023-04-17T05:42:59.502Z,6.90
2023-04-17T05:45:31.991Z,6.50
2023-04-17T05:48:04.931Z,7.45
2023-04-17T05:50:40.670Z,6.80
2023-04-17T05:53:13.193Z,7.40
2023-04-17T05:55:47.413Z,7.15
2023-04-17T05:58:23.909Z,6.17
2023-04-17T06:00:54.255Z,6.03
2023-04-17T06:03:27.725Z,5.58
2023-04-17T06:06:11.581Z,5.58
2023-04-17T06:08:44.357Z,6.17
2023-04-17T06:11:17.377Z,6.78
2023-04-17T06:13:50.386Z,5.45
2023-04-17T06:16:23.167Z,5.97
2023-04-17T06:18:56.208Z,4.90
2023-04-17T06:21:28.752Z,5.45
2023-04-17T06:24:03.098Z,5.67
2023-04-17T06:26:36.375Z,6.08
2023-04-17T06:29:09.194Z,5.47
2023-04-17T06:31:42.624Z,5.30
2023-04-17T06:34:16.319Z,5.58
2023-04-17T06:36:51.571Z,4.60
2023-04-17T06:39:24.094Z,4.37
2023-04-17T06:41:57.248Z,5.15
2023-04-17T06:44:31.569Z,4.80
2023-04-17T06:47:06.043Z,4.72
2023-04-17T06:52:12.235Z,4.53
2023-04-17T06:54:44.720Z,3.60
2023-04-17T06:57:17.385Z,4.00
2023-04-17T06:59:50.100Z,4.30
2023-04-17T07:02:22.871Z,3.85
2023-04-17T07:04:56.081Z,3.98
2023-04-17T07:07:30.279Z,4.20
2023-04-17T07:10:03.803Z,3.60
2023-04-17T07:12:37.029Z,4.17
2023-04-17T07:15:10.823Z,4.03
2023-04-17T07:17:43.620Z,3.85
2023-04-17T07:20:16.119Z,4.20
2023-04-17T07:22:50.274Z,4.67
2023-04-17T07:25:23.051Z,3.80
2023-04-17T07:27:57.074Z,3.70
2023-04-17T07:30:29.713Z,3.87
2023-04-17T07:33:02.965Z,4.30
2023-04-17T07:35:35.446Z,4.62
2023-04-17T07:38:09.433Z,4.20
2023-04-17T07:40:42.051Z,4.60
2023-04-17T07:43:15.488Z,5.28
2023-04-17T07:45:49.192Z,5.00
2023-04-17T07:48:23.572Z,4.30
2023-04-17T07:50:56.373Z,4.90
2023-04-17T07:53:29.507Z,4.50
2023-04-17T07:56:02.216Z,3.40
2023-04-17T07:58:36.459Z,4.00
2023-04-17T08:01:08.881Z,3.90
2023-04-17T08:03:41.932Z,4.05
2023-04-17T08:06:15.731Z,3.92
2023-04-17T08:08:48.608Z,4.00
2023-04-17T08:11:21.553Z,4.33
2023-04-17T08:13:54.784Z,4.12
2023-04-17T08:16:27.408Z,4.03
2023-04-17T08:18:59.950Z,3.33
2023-04-17T08:21:32.916Z,3.20
2023-04-17T08:24:05.693Z,3.70
2023-04-17T08:26:38.409Z,3.87
2023-04-17T08:29:11.313Z,3.27
2023-04-17T08:31:44.314Z,3.80
2023-04-17T08:34:17.120Z,3.70
2023-04-17T08:36:49.803Z,3.20
2023-04-17T08:39:22.907Z,3.27
2023-04-17T08:42:02.088Z,3.40
2023-04-17T08:44:34.748Z,3.27
2023-04-17T08:47:09.526Z,3.20
2023-04-17T08:49:44.199Z,3.17
2023-04-17T08:52:17.021Z,3.33
2023-04-17T08:54:51.320Z,3.20
2023-04-17T08:57:23.561Z,3.33
2023-04-17T08:59:56.203Z,3.20
2023-04-17T09:02:28.828Z,2.75
2023-04-17T09:05:02.257Z,3.08
2023-04-17T09:07:35.032Z,2.98
2023-04-17T09:10:08.070Z,3.10
2023-04-17T09:12:42.366Z,3.30
2023-04-17T09:15:19.080Z,2.75
2023-04-17T09:17:51.819Z,2.98
2023-04-17T09:20:24.672Z,2.80
2023-04-17T09:23:25.083Z,3.15
2023-04-17T09:26:13.853Z,2.67
2023-04-17T09:29:05.431Z,3.27
2023-04-17T09:31:39.521Z,3.17
2023-04-17T09:34:13.622Z,2.90
2023-04-17T09:36:46.272Z,2.70
2023-04-17T09:39:27.224Z,2.80
2023-04-17T09:42:04.430Z,3.92
2023-04-17T09:44:38.198Z,2.83
2023-04-17T09:47:11.458Z,2.95
2023-04-17T09:49:53.107Z,2.90
2023-04-17T09:52:26.256Z,2.72
2023-04-17T09:54:58.653Z,2.85
2023-04-17T09:57:31.506Z,3.00
2023-04-17T10:00:05.809Z,3.12
2023-04-17T10:02:38.239Z,3.40
2023-04-17T10:05:12.907Z,3.05
2023-04-17T10:07:46.086Z,3.30
2023-04-17T10:10:31.432Z,3.92
2023-04-17T10:13:09.332Z,3.65
2023-04-17T10:15:42.376Z,3.15
2023-04-17T10:18:26.624Z,3.05
2023-04-17T10:20:59.084Z,3.47
2023-04-17T10:23:40.244Z,2.92
2023-04-17T10:26:38.003Z,3.02
2023-04-17T10:29:10.532Z,4.83
2023-04-17T10:32:12.624Z,2.92
2023-04-17T10:34:45.425Z,3.62
2023-04-17T10:37:17.897Z,3.25
2023-04-17T10:40:02.406Z,3.10
2023-04-17T10:42:35.343Z,3.40
2023-04-17T10:45:11.291Z,2.85
2023-04-17T10:47:45.658Z,3.67
2023-04-17T10:50:19.516Z,3.27
2023-04-17T10:52:52.030Z,4.00
2023-04-17T10:55:25.561Z,3.37
2023-04-17T10:58:02.315Z,3.27
2023-04-17T11:00:39.058Z,6.35
2023-04-17T11:03:13.518Z,3.40
2023-04-17T11:05:49.122Z,2.98
2023-04-17T11:08:22.619Z,3.40
2023-04-17T11:10:57.307Z,3.05
2023-04-17T11:16:07.584Z,3.35
2023-04-17T11:18:40.341Z,3.58
2023-04-17T11:21:15.787Z,2.60
2023-04-17T11:23:54.109Z,2.90
2023-04-17T11:26:26.746Z,3.00
2023-04-17T11:29:01.147Z,2.60
2023-04-17T11:34:07.184Z,2.90
2023-04-17T11:36:39.880Z,2.50
2023-04-17T11:39:14.306Z,2.62
2023-04-17T11:44:21.432Z,2.77
2023-04-17T11:46:56.983Z,2.30
2023-04-17T11:49:52.073Z,2.33
2023-04-17T11:52:24.515Z,2.52
2023-04-17T11:55:00.309Z,2.40
2023-04-17T11:57:44.247Z,2.30
2023-04-17T12:00:18.141Z,2.00
2023-04-17T12:02:51.210Z,1.87
2023-04-17T12:05:25.759Z,1.72
2023-04-17T12:10:42.944Z,2.05
2023-04-17T12:13:15.787Z,2.02
2023-04-17T12:15:48.347Z,3.00
2023-04-17T12:18:20.972Z,2.05
2023-04-17T12:20:53.394Z,1.90
2023-04-17T12:23:25.939Z,2.08
2023-04-17T12:25:58.419Z,2.00
2023-04-17T12:28:31.413Z,1.90
2023-04-17T12:31:04.858Z,1.98
2023-04-17T12:33:37.591Z,2.02
2023-04-17T12:36:10.941Z,2.15
2023-04-17T12:38:43.558Z,2.02
2023-04-17T12:41:16.011Z,1.70
2023-04-17T12:43:48.423Z,1.85
2023-04-17T12:46:21.756Z,5.72
2023-04-17T12:48:58.819Z,2.33
2023-04-17T12:51:32.483Z,1.70
2023-04-17T12:54:05.027Z,1.67
2023-04-17T12:56:37.901Z,1.90
2023-04-17T12:59:10.829Z,1.95
2023-04-17T13:01:43.958Z,2.00
2023-04-17T13:04:16.852Z,1.72
2023-04-17T13:06:49.650Z,2.15
2023-04-17T13:09:22.217Z,1.90
2023-04-17T13:11:54.859Z,1.90
2023-04-17T13:14:27.835Z,1.60
2023-04-17T13:17:00.474Z,1.82
2023-04-17T13:19:34.296Z,1.40
2023-04-17T13:22:07.670Z,1.67
2023-04-17T13:24:40.490Z,2.47
2023-04-17T13:27:13.290Z,2.55
2023-04-17T13:29:46.620Z,1.72
2023-04-17T13:32:19.230Z,2.30
2023-04-17T13:34:51.722Z,1.87
2023-04-17T13:37:24.766Z,1.72
2023-04-17T13:39:57.090Z,1.92
2023-04-17T13:42:29.599Z,1.45
2023-04-17T13:45:02.144Z,1.47
2023-04-17T13:47:35.098Z,1.50
2023-04-17T13:50:09.086Z,3.22
2023-04-17T13:52:41.793Z,2.17
2023-04-17T13:55:15.883Z,1.90
2023-04-17T13:57:48.504Z,1.82
2023-04-17T14:00:22.429Z,1.80
2023-04-17T14:02:55.144Z,1.47
2023-04-17T14:05:27.662Z,2.10
2023-04-17T14:08:00.416Z,1.65
2023-04-17T14:10:33.149Z,1.77
2023-04-17T14:13:07.240Z,2.30
2023-04-17T14:15:40.428Z,1.92
2023-04-17T14:18:12.911Z,2.02
2023-04-17T14:20:45.543Z,2.17
2023-04-17T14:23:17.971Z,1.60
2023-04-17T14:25:50.450Z,1.80
2023-04-17T14:28:23.748Z,1.98
2023-04-17T14:30:56.769Z,1.80
2023-04-17T14:33:29.354Z,1.90
2023-04-17T14:36:02.646Z,1.80
2023-04-17T14:38:36.167Z,1.60
2023-04-17T14:41:08.700Z,5.05
2023-04-17T14:43:41.350Z,3.12
2023-04-17T14:46:13.728Z,3.12
2023-04-17T14:51:20.512Z,1.95
2023-04-17T14:53:53.474Z,2.55
2023-04-17T14:56:26.063Z,2.50
2023-04-17T14:58:59.641Z,2.17
2023-04-17T15:01:32.609Z,1.80
2023-04-17T15:04:06.668Z,1.50
2023-04-17T15:06:39.489Z,1.98
2023-04-17T15:09:12.368Z,1.85
2023-04-17T15:11:47.102Z,1.82
2023-04-17T15:16:51.362Z,2.50
2023-04-17T15:19:23.946Z,2.37
2023-04-17T15:21:56.573Z,2.08
2023-04-17T15:24:29.099Z,2.10
2023-04-17T15:27:01.976Z,2.40
2023-04-17T15:29:34.507Z,2.37
2023-04-17T15:32:07.258Z,2.05
2023-04-17T15:34:41.311Z,2.15
2023-04-17T15:37:13.657Z,2.62
2023-04-17T15:39:46.265Z,1.82
2023-04-17T15:42:18.627Z,2.05
2023-04-17T15:44:51.253Z,2.52
2023-04-17T15:47:24.846Z,2.55
2023-04-17T15:49:57.276Z,2.55
2023-04-17T15:52:29.788Z,2.42
2023-04-17T15:55:02.477Z,2.67
2023-04-17T15:57:35.567Z,3.22
2023-04-17T16:00:09.527Z,2.62
2023-04-17T16:02:41.965Z,2.67
2023-04-17T16:05:15.477Z,2.60
2023-04-17T16:07:48.376Z,2.85
2023-04-17T16:10:21.478Z,2.45
2023-04-17T16:12:54.242Z,2.83
2023-04-17T16:15:26.711Z,2.15
2023-04-17T16:17:59.237Z,2.37
2023-04-17T16:20:31.749Z,2.72
2023-04-17T16:23:04.626Z,3.25
2023-04-17T16:25:37.464Z,6.47
2023-04-17T16:28:09.907Z,5.00
2023-04-17T16:30:42.470Z,6.45
2023-04-17T16:33:15.019Z,5.28
2023-04-17T16:35:47.443Z,3.75
2023-04-17T16:38:20.393Z,5.05
2023-04-17T16:40:54.632Z,3.47
2023-04-17T16:43:28.107Z,3.27
2023-04-17T16:46:05.512Z,3.17
2023-04-17T16:48:34.937Z,2.60
2023-04-17T16:51:07.676Z,2.95
2023-04-17T16:53:41.449Z,2.92
2023-04-17T16:56:14.003Z,3.60
2023-04-17T16:58:46.584Z,3.52
2023-04-17T17:01:19.722Z,3.47
2023-04-17T17:03:53.345Z,3.67
2023-04-17T17:06:25.741Z,3.98
2023-04-17T17:08:59.791Z,3.50
2023-04-17T17:11:32.234Z,3.70
2023-04-17T17:14:04.642Z,3.00
2023-04-17T17:16:37.368Z,3.77
2023-04-17T17:19:10.286Z,4.05
2023-04-17T17:21:43.085Z,4.33
2023-04-17T17:24:16.153Z,4.00
2023-04-17T17:26:48.611Z,3.50
2023-04-17T17:29:22.072Z,3.70
2023-04-17T17:31:54.538Z,3.83
2023-04-17T17:34:27.654Z,5.55
2023-04-17T17:37:00.938Z,5.30
2023-04-17T17:39:33.589Z,5.33
2023-04-17T17:42:08.276Z,4.12
2023-04-17T17:44:41.204Z,3.98
2023-04-17T17:47:13.596Z,4.33
2023-04-17T17:49:46.217Z,4.33
2023-04-17T17:52:18.718Z,3.60
2023-04-17T17:54:51.758Z,3.35
2023-04-17T17:57:24.187Z,3.85
2023-04-17T17:59:58.346Z,3.20
2023-04-17T18:02:30.987Z,3.60
2023-04-17T18:05:03.979Z,3.30
2023-04-17T18:07:36.965Z,3.33
2023-04-17T18:10:10.370Z,3.22
2023-04-17T18:12:42.943Z,3.15
2023-04-17T18:15:15.379Z,5.33
2023-04-17T18:17:48.185Z,4.72
2023-04-17T18:20:20.910Z,3.80
2023-04-17T18:22:53.995Z,3.45
2023-04-17T18:25:26.577Z,3.10
2023-04-17T18:30:44.178Z,3.22
2023-04-17T18:33:16.701Z,2.87
2023-04-17T18:35:49.846Z,14.13
2023-04-17T18:38:23.311Z,6.67
2023-04-17T18:40:58.279Z,4.50
2023-04-17T18:43:30.890Z,3.67
2023-04-17T18:46:08.090Z,2.85
2023-04-17T18:48:40.861Z,3.55
2023-04-17T18:51:17.629Z,3.17
2023-04-17T18:53:50.634Z,3.33
2023-04-17T18:56:24.315Z,3.37
2023-04-17T18:58:56.926Z,3.67
2023-04-17T19:01:29.726Z,3.45
2023-04-17T19:04:03.488Z,3.72
2023-04-17T19:06:36.537Z,4.20
2023-04-17T19:09:09.270Z,4.65
2023-04-17T19:11:41.775Z,4.40
2023-04-17T19:14:14.582Z,4.30
2023-04-17T19:16:47.529Z,4.50
2023-04-17T19:19:20.476Z,5.00
2023-04-17T19:21:53.091Z,4.37
2023-04-17T19:24:26.143Z,4.62
2023-04-17T19:26:58.706Z,5.50
2023-04-17T19:29:31.325Z,5.35
2023-04-17T19:32:04.020Z,4.83
2023-04-17T19:34:36.835Z,4.72
2023-04-17T19:37:09.369Z,5.03
2023-04-17T19:39:42.199Z,5.33
2023-04-17T19:42:14.863Z,5.50
2023-04-17T19:44:47.416Z,4.85
2023-04-17T19:47:20.036Z,5.20
2023-04-17T19:49:52.792Z,4.35
2023-04-17T19:52:25.953Z,5.08
2023-04-17T19:54:58.460Z,4.42
2023-04-17T19:57:30.883Z,4.72
2023-04-17T20:00:04.151Z,4.42
2023-04-17T20:02:38.833Z,4.45
2023-04-17T20:05:11.757Z,4.58
2023-04-17T20:07:44.343Z,5.45
2023-04-17T20:10:17.167Z,4.55
2023-04-17T20:12:49.840Z,4.17
2023-04-17T20:15:22.537Z,4.17
2023-04-17T20:17:55.664Z,3.85
2023-04-17T20:20:28.221Z,3.90
2023-04-17T20:23:00.848Z,4.10
2023-04-17T20:25:33.798Z,3.98
2023-04-17T20:28:07.943Z,3.72
2023-04-17T20:30:44.717Z,4.05
2023-04-17T20:33:18.128Z,4.03
2023-04-17T20:35:52.643Z,3.65
2023-04-17T20:38:25.934Z,3.45
2023-04-17T20:40:58.571Z,3.90
2023-04-17T20:43:35.702Z,4.03
2023-04-17T20:46:08.255Z,3.37
2023-04-17T20:48:41.366Z,4.08
2023-04-17T20:51:13.752Z,4.35
2023-04-17T20:53:46.518Z,4.20
2023-04-17T20:56:19.898Z,4.30
2023-04-17T20:58:52.409Z,4.17
2023-04-17T21:01:24.923Z,4.03
2023-04-17T21:03:57.485Z,4.15
2023-04-17T21:06:29.997Z,3.95
2023-04-17T21:09:02.652Z,4.33
2023-04-17T21:11:35.899Z,4.20
2023-04-17T21:14:08.648Z,3.87
2023-04-17T21:16:43.326Z,3.90
2023-04-17T21:19:16.239Z,3.72
2023-04-17T21:21:48.841Z,3.70
2023-04-17T21:24:21.889Z,3.50
2023-04-17T21:26:56.216Z,3.70
2023-04-17T21:29:30.164Z,3.87
2023-04-17T21:32:04.056Z,3.35
2023-04-17T21:34:36.734Z,3.60
2023-04-17T21:37:10.113Z,3.70
2023-04-17T21:39:42.594Z,3.67
2023-04-17T21:42:17.127Z,4.00
2023-04-17T21:44:49.714Z,3.95
2023-04-17T21:47:22.300Z,3.70
2023-04-17T21:49:54.890Z,4.10
2023-04-17T21:52:27.682Z,4.08
2023-04-17T21:55:01.833Z,4.25
2023-04-17T21:57:36.328Z,3.55
2023-04-17T22:00:11.852Z,3.55
2023-04-17T22:02:44.914Z,3.77
2023-04-17T22:05:17.894Z,3.85
2023-04-17T22:07:54.967Z,3.87
2023-04-17T22:12:57.013Z,3.95
2023-04-17T22:15:29.418Z,4.42
2023-04-17T22:18:01.983Z,4.25
2023-04-17T22:20:34.848Z,4.12
2023-04-17T22:23:07.969Z,4.78
2023-04-17T22:25:40.888Z,3.87
2023-04-17T22:28:13.476Z,4.40
2023-04-17T22:30:45.975Z,4.30
2023-04-17T22:33:18.821Z,4.47
2023-04-17T22:35:51.643Z,3.95
2023-04-17T22:38:24.453Z,4.03
2023-04-17T22:40:57.301Z,4.20
2023-04-17T22:43:29.899Z,4.30
2023-04-17T22:46:02.442Z,4.05
2023-04-17T22:48:35.358Z,3.77
2023-04-17T22:51:09.871Z,4.50
2023-04-17T22:53:42.738Z,3.70
2023-04-17T22:56:15.292Z,4.08
2023-04-17T22:58:48.081Z,4.25
2023-04-17T23:01:21.083Z,4.30
2023-04-17T23:03:53.741Z,4.17
2023-04-17T23:06:26.423Z,4.05
2023-04-17T23:08:59.203Z,4.17
2023-04-17T23:11:34.019Z,4.20
2023-04-17T23:14:06.689Z,4.87
2023-04-17T23:16:39.892Z,4.08
2023-04-17T23:19:12.490Z,4.60
2023-04-17T23:21:44.988Z,4.15
2023-04-17T23:24:17.414Z,4.37
2023-04-17T23:26:50.055Z,4.35
2023-04-17T23:29:22.482Z,4.00
2023-04-17T23:31:55.114Z,4.35
2023-04-17T23:34:28.313Z,4.33
2023-04-17T23:37:02.714Z,3.98
2023-04-17T23:39:36.003Z,4.12
2023-04-17T23:42:09.092Z,4.40
2023-04-17T23:44:41.669Z,4.17
2023-04-17T23:47:14.821Z,4.62
2023-04-17T23:49:48.132Z,4.10
2023-04-17T23:52:20.908Z,4.17
2023-04-17T23:54:53.514Z,4.12
2023-04-17T23:57:26.149Z,3.90
2023-04-17T23:59:58.570Z,4.05
